메인 페이지
METAR-TAF:

METAR-TAF

공항 :

롱위에아르뷔엔, 노르웨이

위도: 78-15N, 경도: 015-28E, 고도: 2m

현재 날씨관측

예보는 1 시간 21분 전, 23:50시(UTC)에 발표되었습니다.
8kt
온도 4°C
습도 87%
기압 1008 hPa
시정 10km 이상
고도 800ft 상공 구름 많음

METAR: ENSB 142350Z 26008KT 9999 BKN008 04/02 Q1008 RMK WIND 1400FT 24009KT

시각: 03:11 (01:11 UTC)

예보

예보 대상 시간: 15일 00시부터 15일 24시까지 (UTC)
서남서8kt
시정 10km 이상
고도 500ft 상공 구름 조금
고도 1500ft 상공 구름 많음
확률 40%
15일 00시부터 15일 24시까지 (UTC)
고도 800ft 상공 구름 많음

TAF: ENSB 1500/1524 25008KT 9999 FEW005 BKN015 PROB40 1500/1524 BKN008

4,000개 이상의 공항 관측 자료 및 예보 (METAR 및 TAF 보고).

지도상에서 검색 가능한 기상관측소가 노란 점과 빨간 점으로 표시되어 있습니다.

기상관측소 명을 보려면 표시 위로 마우스를 이동하세요.

날씨 관측과 예보를 보려면 클릭하세요.

지도 변경 : 확대하려면 엑스 표시가 있는 녹색 버튼, 축소하려면 빼기 표시가 있는 녹색 버튼, 다음 페이지의 지도를 보려면 녹색 화살표를 클릭하세요.


METAR-TAF: